sensor_id;sensor_type;location;lat;lon;timestamp;P1;durP1;ratioP1;P2;durP2;ratioP2
31043;SDS011;17710;52.520;13.352;2022-11-15T00:01:07;51.22;;;28.55;;
31043;SDS011;17710;52.520;13.352;2022-11-15T00:03:33;52.95;;;29.63;;
31043;SDS011;17710;52.520;13.352;2022-11-15T00:06:01;52.15;;;30.50;;
31043;SDS011;17710;52.520;13.352;2022-11-15T00:08:29;53.10;;;29.80;;
31043;SDS011;17710;52.520;13.352;2022-11-15T00:10:58;53.80;;;31.42;;
31043;SDS011;17710;52.520;13.352;2022-11-15T00:13:27;50.30;;;30.38;;
31043;SDS011;17710;52.520;13.352;2022-11-15T00:15:56;53.42;;;29.73;;
31043;SDS011;17710;52.520;13.352;2022-11-15T00:18:23;48.25;;;29.73;;
31043;SDS011;17710;52.520;13.352;2022-11-15T00:20:50;53.60;;;30.02;;
31043;SDS011;17710;52.520;13.352;2022-11-15T00:23:16;52.65;;;29.65;;
31043;SDS011;17710;52.520;13.352;2022-11-15T00:25:43;52.88;;;29.33;;
31043;SDS011;17710;52.520;13.352;2022-11-15T00:28:10;54.53;;;30.75;;
31043;SDS011;17710;52.520;13.352;2022-11-15T00:30:37;51.30;;;30.35;;
31043;SDS011;17710;52.520;13.352;2022-11-15T00:33:04;51.97;;;30.38;;
31043;SDS011;17710;52.520;13.352;2022-11-15T00:35:32;51.50;;;30.85;;
31043;SDS011;17710;52.520;13.352;2022-11-15T00:38:00;52.22;;;30.33;;
31043;SDS011;17710;52.520;13.352;2022-11-15T00:40:27;53.25;;;30.88;;
31043;SDS011;17710;52.520;13.352;2022-11-15T00:42:54;52.53;;;31.60;;
31043;SDS011;17710;52.520;13.352;2022-11-15T00:45:22;55.95;;;30.98;;
31043;SDS011;17710;52.520;13.352;2022-11-15T00:47:49;53.70;;;30.05;;
31043;SDS011;17710;52.520;13.352;2022-11-15T00:50:16;52.88;;;30.58;;
31043;SDS011;17710;52.520;13.352;2022-11-15T00:52:42;53.75;;;30.52;;
31043;SDS011;17710;52.520;13.352;2022-11-15T00:55:09;55.67;;;31.63;;
31043;SDS011;17710;52.520;13.352;2022-11-15T00:57:39;54.95;;;31.13;;
31043;SDS011;17710;52.520;13.352;2022-11-15T01:00:06;53.25;;;30.90;;
31043;SDS011;17710;52.520;13.352;2022-11-15T01:02:35;51.60;;;30.60;;
31043;SDS011;17710;52.520;13.352;2022-11-15T01:05:02;57.10;;;31.02;;
31043;SDS011;17710;52.520;13.352;2022-11-15T01:07:29;49.42;;;28.27;;
31043;SDS011;17710;52.520;13.352;2022-11-15T01:09:56;57.33;;;31.10;;
31043;SDS011;17710;52.520;13.352;2022-11-15T01:12:22;55.05;;;29.55;;
31043;SDS011;17710;52.520;13.352;2022-11-15T01:14:49;52.22;;;30.45;;
31043;SDS011;17710;52.520;13.352;2022-11-15T01:17:15;52.15;;;29.77;;
31043;SDS011;17710;52.520;13.352;2022-11-15T01:19:43;55.17;;;31.05;;
31043;SDS011;17710;52.520;13.352;2022-11-15T01:22:09;53.25;;;30.58;;
31043;SDS011;17710;52.520;13.352;2022-11-15T01:24:36;58.42;;;32.58;;
31043;SDS011;17710;52.520;13.352;2022-11-15T01:27:03;56.72;;;32.47;;
31043;SDS011;17710;52.520;13.352;2022-11-15T01:29:29;53.40;;;29.67;;
31043;SDS011;17710;52.520;13.352;2022-11-15T01:31:56;54.50;;;31.08;;
31043;SDS011;17710;52.520;13.352;2022-11-15T01:34:22;53.80;;;31.08;;
31043;SDS011;17710;52.520;13.352;2022-11-15T01:36:50;56.25;;;31.25;;
31043;SDS011;17710;52.520;13.352;2022-11-15T01:39:17;57.72;;;30.52;;
31043;SDS011;17710;52.520;13.352;2022-11-15T01:41:45;51.70;;;30.13;;
31043;SDS011;17710;52.520;13.352;2022-11-15T01:47:12;51.53;;;30.45;;
31043;SDS011;17710;52.520;13.352;2022-11-15T01:49:43;51.30;;;30.08;;
31043;SDS011;17710;52.520;13.352;2022-11-15T01:52:19;53.90;;;30.95;;
31043;SDS011;17710;52.520;13.352;2022-11-15T01:54:48;50.58;;;31.08;;
31043;SDS011;17710;52.520;13.352;2022-11-15T01:57:18;55.70;;;31.70;;
31043;SDS011;17710;52.520;13.352;2022-11-15T01:59:45;55.67;;;30.08;;
31043;SDS011;17710;52.520;13.352;2022-11-15T02:02:13;52.38;;;31.30;;
31043;SDS011;17710;52.520;13.352;2022-11-15T02:04:42;51.67;;;30.50;;
31043;SDS011;17710;52.520;13.352;2022-11-15T02:07:10;54.67;;;31.10;;
31043;SDS011;17710;52.520;13.352;2022-11-15T02:09:40;57.72;;;32.25;;
31043;SDS011;17710;52.520;13.352;2022-11-15T02:12:08;54.88;;;30.55;;
31043;SDS011;17710;52.520;13.352;2022-11-15T02:14:37;51.30;;;31.52;;
31043;SDS011;17710;52.520;13.352;2022-11-15T02:17:09;54.05;;;30.85;;
31043;SDS011;17710;52.520;13.352;2022-11-15T02:20:00;62.88;;;31.50;;
31043;SDS011;17710;52.520;13.352;2022-11-15T02:22:46;52.72;;;31.48;;
31043;SDS011;17710;52.520;13.352;2022-11-15T02:25:33;55.83;;;30.35;;
31043;SDS011;17710;52.520;13.352;2022-11-15T02:28:09;60.35;;;32.35;;
31043;SDS011;17710;52.520;13.352;2022-11-15T02:30:54;54.47;;;31.88;;
31043;SDS011;17710;52.520;13.352;2022-11-15T02:33:26;61.35;;;32.40;;
31043;SDS011;17710;52.520;13.352;2022-11-15T02:36:00;56.97;;;31.48;;
31043;SDS011;17710;52.520;13.352;2022-11-15T02:38:31;51.15;;;30.55;;
31043;SDS011;17710;52.520;13.352;2022-11-15T02:41:04;54.13;;;31.90;;
31043;SDS011;17710;52.520;13.352;2022-11-15T02:43:36;57.90;;;31.77;;
31043;SDS011;17710;52.520;13.352;2022-11-15T02:46:25;54.00;;;30.15;;
31043;SDS011;17710;52.520;13.352;2022-11-15T02:49:15;58.40;;;31.63;;
31043;SDS011;17710;52.520;13.352;2022-11-15T02:51:42;54.20;;;30.75;;
31043;SDS011;17710;52.520;13.352;2022-11-15T02:54:12;57.45;;;33.00;;
31043;SDS011;17710;52.520;13.352;2022-11-15T02:56:40;50.15;;;30.38;;
31043;SDS011;17710;52.520;13.352;2022-11-15T02:59:11;54.15;;;31.75;;
31043;SDS011;17710;52.520;13.352;2022-11-15T03:01:54;52.88;;;30.65;;
31043;SDS011;17710;52.520;13.352;2022-11-15T03:04:29;56.65;;;31.38;;
31043;SDS011;17710;52.520;13.352;2022-11-15T03:07:05;60.50;;;32.03;;
31043;SDS011;17710;52.520;13.352;2022-11-15T03:09:38;54.60;;;31.08;;
31043;SDS011;17710;52.520;13.352;2022-11-15T03:12:10;54.28;;;31.13;;
31043;SDS011;17710;52.520;13.352;2022-11-15T03:14:42;52.00;;;29.92;;
31043;SDS011;17710;52.520;13.352;2022-11-15T03:17:21;53.27;;;29.67;;
31043;SDS011;17710;52.520;13.352;2022-11-15T03:19:52;55.42;;;30.80;;
31043;SDS011;17710;52.520;13.352;2022-11-15T03:22:23;55.47;;;31.23;;
31043;SDS011;17710;52.520;13.352;2022-11-15T03:24:52;60.45;;;32.53;;
31043;SDS011;17710;52.520;13.352;2022-11-15T03:27:23;52.35;;;30.17;;
31043;SDS011;17710;52.520;13.352;2022-11-15T03:29:54;57.55;;;31.85;;
31043;SDS011;17710;52.520;13.352;2022-11-15T03:32:25;53.95;;;30.40;;
31043;SDS011;17710;52.520;13.352;2022-11-15T03:34:55;53.03;;;30.58;;
31043;SDS011;17710;52.520;13.352;2022-11-15T03:37:25;55.88;;;31.55;;
31043;SDS011;17710;52.520;13.352;2022-11-15T03:39:58;55.80;;;30.88;;
31043;SDS011;17710;52.520;13.352;2022-11-15T03:42:27;55.45;;;32.05;;
31043;SDS011;17710;52.520;13.352;2022-11-15T03:44:58;56.40;;;31.42;;
31043;SDS011;17710;52.520;13.352;2022-11-15T03:47:34;53.58;;;31.20;;
31043;SDS011;17710;52.520;13.352;2022-11-15T03:50:07;55.80;;;30.73;;
31043;SDS011;17710;52.520;13.352;2022-11-15T03:52:36;56.00;;;31.17;;
31043;SDS011;17710;52.520;13.352;2022-11-15T03:55:04;53.67;;;29.83;;
31043;SDS011;17710;52.520;13.352;2022-11-15T03:57:32;54.97;;;30.38;;
31043;SDS011;17710;52.520;13.352;2022-11-15T03:59:59;49.78;;;29.17;;
31043;SDS011;17710;52.520;13.352;2022-11-15T04:02:25;53.10;;;30.25;;
31043;SDS011;17710;52.520;13.352;2022-11-15T04:04:54;54.15;;;29.88;;
31043;SDS011;17710;52.520;13.352;2022-11-15T04:07:20;51.65;;;30.35;;
31043;SDS011;17710;52.520;13.352;2022-11-15T04:09:47;56.13;;;30.38;;
31043;SDS011;17710;52.520;13.352;2022-11-15T04:12:28;55.15;;;32.55;;
31043;SDS011;17710;52.520;13.352;2022-11-15T04:14:59;52.95;;;30.60;;
31043;SDS011;17710;52.520;13.352;2022-11-15T04:17:36;51.08;;;29.65;;
31043;SDS011;17710;52.520;13.352;2022-11-15T04:20:06;51.00;;;29.60;;
31043;SDS011;17710;52.520;13.352;2022-11-15T04:22:53;52.83;;;30.13;;
31043;SDS011;17710;52.520;13.352;2022-11-15T04:25:38;52.42;;;30.05;;
31043;SDS011;17710;52.520;13.352;2022-11-15T04:28:04;55.33;;;30.25;;
31043;SDS011;17710;52.520;13.352;2022-11-15T04:30:31;51.95;;;29.95;;
31043;SDS011;17710;52.520;13.352;2022-11-15T04:32:57;51.60;;;30.13;;
31043;SDS011;17710;52.520;13.352;2022-11-15T04:35:25;48.80;;;28.73;;
31043;SDS011;17710;52.520;13.352;2022-11-15T04:37:52;51.67;;;29.00;;
31043;SDS011;17710;52.520;13.352;2022-11-15T04:42:44;50.03;;;27.80;;
31043;SDS011;17710;52.520;13.352;2022-11-15T04:45:10;52.85;;;28.25;;
31043;SDS011;17710;52.520;13.352;2022-11-15T04:47:37;52.83;;;29.60;;
31043;SDS011;17710;52.520;13.352;2022-11-15T04:50:04;50.38;;;28.58;;
31043;SDS011;17710;52.520;13.352;2022-11-15T04:52:32;47.10;;;27.70;;
31043;SDS011;17710;52.520;13.352;2022-11-15T04:54:59;56.67;;;30.38;;
31043;SDS011;17710;52.520;13.352;2022-11-15T04:57:25;54.25;;;29.98;;
31043;SDS011;17710;52.520;13.352;2022-11-15T04:59:52;51.30;;;29.23;;
31043;SDS011;17710;52.520;13.352;2022-11-15T05:02:18;49.35;;;27.77;;
31043;SDS011;17710;52.520;13.352;2022-11-15T05:04:45;54.72;;;30.33;;
31043;SDS011;17710;52.520;13.352;2022-11-15T05:07:11;53.80;;;30.02;;
31043;SDS011;17710;52.520;13.352;2022-11-15T05:09:39;47.97;;;27.70;;
31043;SDS011;17710;52.520;13.352;2022-11-15T05:12:05;48.00;;;27.02;;
31043;SDS011;17710;52.520;13.352;2022-11-15T05:14:32;53.53;;;29.75;;
31043;SDS011;17710;52.520;13.352;2022-11-15T05:16:58;50.70;;;29.33;;
31043;SDS011;17710;52.520;13.352;2022-11-15T05:19:25;49.78;;;29.05;;
31043;SDS011;17710;52.520;13.352;2022-11-15T05:21:51;49.10;;;28.42;;
31043;SDS011;17710;52.520;13.352;2022-11-15T05:24:20;55.05;;;29.50;;
31043;SDS011;17710;52.520;13.352;2022-11-15T05:26:48;51.00;;;28.88;;
31043;SDS011;17710;52.520;13.352;2022-11-15T05:29:15;48.78;;;28.65;;
31043;SDS011;17710;52.520;13.352;2022-11-15T05:31:42;50.33;;;28.80;;
31043;SDS011;17710;52.520;13.352;2022-11-15T05:34:08;52.83;;;28.95;;
31043;SDS011;17710;52.520;13.352;2022-11-15T05:36:36;48.95;;;27.75;;
31043;SDS011;17710;52.520;13.352;2022-11-15T05:39:04;50.95;;;27.35;;
31043;SDS011;17710;52.520;13.352;2022-11-15T05:41:33;47.63;;;27.60;;
31043;SDS011;17710;52.520;13.352;2022-11-15T05:44:04;51.78;;;28.95;;
31043;SDS011;17710;52.520;13.352;2022-11-15T05:46:33;50.80;;;28.52;;
31043;SDS011;17710;52.520;13.352;2022-11-15T05:49:01;50.97;;;28.95;;
31043;SDS011;17710;52.520;13.352;2022-11-15T05:51:27;51.50;;;28.08;;
31043;SDS011;17710;52.520;13.352;2022-11-15T05:53:55;50.03;;;28.75;;
31043;SDS011;17710;52.520;13.352;2022-11-15T05:56:24;54.67;;;29.38;;
31043;SDS011;17710;52.520;13.352;2022-11-15T05:58:51;52.17;;;29.13;;
31043;SDS011;17710;52.520;13.352;2022-11-15T06:01:20;51.67;;;29.50;;
31043;SDS011;17710;52.520;13.352;2022-11-15T06:03:47;51.75;;;29.48;;
31043;SDS011;17710;52.520;13.352;2022-11-15T06:06:14;52.03;;;30.65;;
31043;SDS011;17710;52.520;13.352;2022-11-15T06:08:40;56.55;;;29.48;;
31043;SDS011;17710;52.520;13.352;2022-11-15T06:11:07;53.00;;;31.00;;
31043;SDS011;17710;52.520;13.352;2022-11-15T06:13:33;52.78;;;27.92;;
31043;SDS011;17710;52.520;13.352;2022-11-15T06:16:00;50.78;;;28.92;;
31043;SDS011;17710;52.520;13.352;2022-11-15T06:18:28;50.55;;;28.30;;
31043;SDS011;17710;52.520;13.352;2022-11-15T06:20:58;50.95;;;28.52;;
31043;SDS011;17710;52.520;13.352;2022-11-15T06:23:25;51.30;;;30.17;;
31043;SDS011;17710;52.520;13.352;2022-11-15T06:25:52;58.60;;;30.02;;
31043;SDS011;17710;52.520;13.352;2022-11-15T06:28:19;48.42;;;28.70;;
31043;SDS011;17710;52.520;13.352;2022-11-15T06:30:45;51.47;;;29.00;;
31043;SDS011;17710;52.520;13.352;2022-11-15T06:33:12;51.28;;;29.30;;
31043;SDS011;17710;52.520;13.352;2022-11-15T06:35:39;47.35;;;27.77;;
31043;SDS011;17710;52.520;13.352;2022-11-15T06:38:07;53.05;;;29.13;;
31043;SDS011;17710;52.520;13.352;2022-11-15T06:40:34;50.63;;;28.58;;
31043;SDS011;17710;52.520;13.352;2022-11-15T06:43:03;56.67;;;29.65;;
31043;SDS011;17710;52.520;13.352;2022-11-15T06:45:30;51.58;;;28.80;;
31043;SDS011;17710;52.520;13.352;2022-11-15T06:47:57;50.90;;;29.33;;
31043;SDS011;17710;52.520;13.352;2022-11-15T06:50:24;55.03;;;29.77;;
31043;SDS011;17710;52.520;13.352;2022-11-15T06:52:52;52.28;;;29.13;;
31043;SDS011;17710;52.520;13.352;2022-11-15T06:55:19;51.17;;;28.67;;
31043;SDS011;17710;52.520;13.352;2022-11-15T06:57:46;56.03;;;29.35;;
31043;SDS011;17710;52.520;13.352;2022-11-15T07:00:15;57.38;;;28.48;;
31043;SDS011;17710;52.520;13.352;2022-11-15T07:02:42;53.35;;;29.83;;
31043;SDS011;17710;52.520;13.352;2022-11-15T07:05:09;50.08;;;28.50;;
31043;SDS011;17710;52.520;13.352;2022-11-15T07:07:36;66.47;;;30.60;;
31043;SDS011;17710;52.520;13.352;2022-11-15T07:10:05;48.67;;;27.77;;
31043;SDS011;17710;52.520;13.352;2022-11-15T07:12:32;51.67;;;28.50;;
31043;SDS011;17710;52.520;13.352;2022-11-15T07:14:59;48.97;;;28.63;;
31043;SDS011;17710;52.520;13.352;2022-11-15T07:17:26;48.88;;;28.20;;
31043;SDS011;17710;52.520;13.352;2022-11-15T07:19:52;54.80;;;30.75;;
31043;SDS011;17710;52.520;13.352;2022-11-15T07:22:19;47.88;;;27.80;;
31043;SDS011;17710;52.520;13.352;2022-11-15T07:24:45;54.55;;;28.40;;
31043;SDS011;17710;52.520;13.352;2022-11-15T07:27:13;48.80;;;29.10;;
31043;SDS011;17710;52.520;13.352;2022-11-15T07:29:40;49.88;;;29.33;;
31043;SDS011;17710;52.520;13.352;2022-11-15T07:32:07;50.70;;;29.20;;
31043;SDS011;17710;52.520;13.352;2022-11-15T07:34:34;49.50;;;28.52;;
31043;SDS011;17710;52.520;13.352;2022-11-15T07:37:04;52.10;;;29.77;;
31043;SDS011;17710;52.520;13.352;2022-11-15T07:39:31;49.55;;;28.38;;
31043;SDS011;17710;52.520;13.352;2022-11-15T07:41:58;51.00;;;29.48;;
31043;SDS011;17710;52.520;13.352;2022-11-15T07:44:40;53.35;;;27.85;;
31043;SDS011;17710;52.520;13.352;2022-11-15T07:47:06;52.75;;;28.73;;
31043;SDS011;17710;52.520;13.352;2022-11-15T07:49:33;49.25;;;27.27;;
31043;SDS011;17710;52.520;13.352;2022-11-15T07:51:59;50.28;;;28.23;;
31043;SDS011;17710;52.520;13.352;2022-11-15T07:54:26;49.28;;;29.33;;
31043;SDS011;17710;52.520;13.352;2022-11-15T07:56:53;48.15;;;27.80;;
31043;SDS011;17710;52.520;13.352;2022-11-15T07:59:19;50.72;;;28.48;;
31043;SDS011;17710;52.520;13.352;2022-11-15T08:01:48;47.00;;;27.27;;
31043;SDS011;17710;52.520;13.352;2022-11-15T08:04:14;44.47;;;27.15;;
31043;SDS011;17710;52.520;13.352;2022-11-15T08:06:44;49.42;;;28.55;;
31043;SDS011;17710;52.520;13.352;2022-11-15T08:09:11;53.10;;;28.63;;
31043;SDS011;17710;52.520;13.352;2022-11-15T08:11:37;52.28;;;29.05;;
31043;SDS011;17710;52.520;13.352;2022-11-15T08:14:04;45.55;;;27.25;;
31043;SDS011;17710;52.520;13.352;2022-11-15T08:16:30;52.53;;;27.50;;
31043;SDS011;17710;52.520;13.352;2022-11-15T08:18:58;47.03;;;26.83;;
31043;SDS011;17710;52.520;13.352;2022-11-15T08:21:25;46.05;;;27.67;;
31043;SDS011;17710;52.520;13.352;2022-11-15T08:23:51;50.67;;;28.30;;
31043;SDS011;17710;52.520;13.352;2022-11-15T08:26:18;46.95;;;27.55;;
31043;SDS011;17710;52.520;13.352;2022-11-15T08:28:44;46.50;;;26.38;;
31043;SDS011;17710;52.520;13.352;2022-11-15T08:31:13;45.78;;;26.85;;
31043;SDS011;17710;52.520;13.352;2022-11-15T08:33:43;44.17;;;26.80;;
31043;SDS011;17710;52.520;13.352;2022-11-15T08:36:13;39.83;;;24.63;;
31043;SDS011;17710;52.520;13.352;2022-11-15T08:38:41;44.65;;;26.33;;
31043;SDS011;17710;52.520;13.352;2022-11-15T08:41:09;46.80;;;24.65;;
31043;SDS011;17710;52.520;13.352;2022-11-15T08:43:39;48.05;;;25.63;;
31043;SDS011;17710;52.520;13.352;2022-11-15T08:46:07;40.10;;;24.05;;
31043;SDS011;17710;52.520;13.352;2022-11-15T08:48:34;41.22;;;24.13;;
31043;SDS011;17710;52.520;13.352;2022-11-15T08:51:04;44.65;;;25.90;;
31043;SDS011;17710;52.520;13.352;2022-11-15T08:53:33;42.53;;;25.70;;
31043;SDS011;17710;52.520;13.352;2022-11-15T08:55:59;43.42;;;24.48;;
31043;SDS011;17710;52.520;13.352;2022-11-15T08:58:26;43.15;;;24.15;;
31043;SDS011;17710;52.520;13.352;2022-11-15T09:00:53;38.72;;;23.48;;
31043;SDS011;17710;52.520;13.352;2022-11-15T09:03:19;41.92;;;23.05;;
31043;SDS011;17710;52.520;13.352;2022-11-15T09:05:46;39.47;;;23.08;;
31043;SDS011;17710;52.520;13.352;2022-11-15T09:08:12;40.33;;;23.35;;
31043;SDS011;17710;52.520;13.352;2022-11-15T09:10:40;38.30;;;22.70;;
31043;SDS011;17710;52.520;13.352;2022-11-15T09:13:06;34.75;;;22.27;;
31043;SDS011;17710;52.520;13.352;2022-11-15T09:15:33;43.83;;;23.45;;
31043;SDS011;17710;52.520;13.352;2022-11-15T09:17:59;34.78;;;21.55;;
31043;SDS011;17710;52.520;13.352;2022-11-15T09:20:26;35.63;;;21.17;;
31043;SDS011;17710;52.520;13.352;2022-11-15T09:22:52;34.38;;;22.00;;
31043;SDS011;17710;52.520;13.352;2022-11-15T09:25:19;32.97;;;21.17;;
31043;SDS011;17710;52.520;13.352;2022-11-15T09:27:46;37.30;;;23.23;;
31043;SDS011;17710;52.520;13.352;2022-11-15T09:30:13;36.10;;;22.42;;
31043;SDS011;17710;52.520;13.352;2022-11-15T09:32:39;34.20;;;20.77;;
31043;SDS011;17710;52.520;13.352;2022-11-15T09:35:06;33.05;;;19.95;;
31043;SDS011;17710;52.520;13.352;2022-11-15T09:37:32;33.88;;;19.50;;
31043;SDS011;17710;52.520;13.352;2022-11-15T09:39:59;32.78;;;18.77;;
31043;SDS011;17710;52.520;13.352;2022-11-15T09:42:28;30.55;;;18.85;;
31043;SDS011;17710;52.520;13.352;2022-11-15T09:45:09;31.55;;;18.73;;
31043;SDS011;17710;52.520;13.352;2022-11-15T09:47:46;37.03;;;20.40;;
31043;SDS011;17710;52.520;13.352;2022-11-15T09:50:28;34.28;;;20.02;;
31043;SDS011;17710;52.520;13.352;2022-11-15T09:53:00;34.40;;;19.38;;
31043;SDS011;17710;52.520;13.352;2022-11-15T09:55:29;29.55;;;19.33;;
31043;SDS011;17710;52.520;13.352;2022-11-15T09:58:05;30.23;;;19.23;;
31043;SDS011;17710;52.520;13.352;2022-11-15T10:00:44;31.23;;;17.95;;
31043;SDS011;17710;52.520;13.352;2022-11-15T10:03:18;31.38;;;17.95;;
31043;SDS011;17710;52.520;13.352;2022-11-15T10:05:50;33.38;;;17.45;;
31043;SDS011;17710;52.520;13.352;2022-11-15T10:08:25;29.20;;;18.38;;
31043;SDS011;17710;52.520;13.352;2022-11-15T10:11:01;32.08;;;17.90;;
31043;SDS011;17710;52.520;13.352;2022-11-15T10:13:30;25.05;;;16.83;;
31043;SDS011;17710;52.520;13.352;2022-11-15T10:16:03;28.67;;;17.40;;
31043;SDS011;17710;52.520;13.352;2022-11-15T10:18:40;27.92;;;17.05;;
31043;SDS011;17710;52.520;13.352;2022-11-15T10:21:17;29.35;;;16.85;;
31043;SDS011;17710;52.520;13.352;2022-11-15T10:23:46;32.67;;;17.63;;
31043;SDS011;17710;52.520;13.352;2022-11-15T10:26:15;29.80;;;17.33;;
31043;SDS011;17710;52.520;13.352;2022-11-15T10:28:43;31.77;;;17.88;;
31043;SDS011;17710;52.520;13.352;2022-11-15T10:31:22;28.23;;;16.45;;
31043;SDS011;17710;52.520;13.352;2022-11-15T10:33:50;27.95;;;17.33;;
31043;SDS011;17710;52.520;13.352;2022-11-15T10:36:18;27.45;;;16.00;;
31043;SDS011;17710;52.520;13.352;2022-11-15T10:38:55;29.38;;;16.05;;
31043;SDS011;17710;52.520;13.352;2022-11-15T10:41:29;25.92;;;16.42;;
31043;SDS011;17710;52.520;13.352;2022-11-15T10:44:07;27.08;;;16.13;;
31043;SDS011;17710;52.520;13.352;2022-11-15T10:49:57;24.83;;;16.10;;
31043;SDS011;17710;52.520;13.352;2022-11-15T10:52:26;27.38;;;15.70;;
31043;SDS011;17710;52.520;13.352;2022-11-15T10:54:55;27.33;;;15.73;;
31043;SDS011;17710;52.520;13.352;2022-11-15T10:57:25;22.10;;;14.52;;
31043;SDS011;17710;52.520;13.352;2022-11-15T10:59:55;24.30;;;15.75;;
31043;SDS011;17710;52.520;13.352;2022-11-15T11:02:31;25.38;;;15.70;;
31043;SDS011;17710;52.520;13.352;2022-11-15T11:05:00;27.85;;;16.25;;
31043;SDS011;17710;52.520;13.352;2022-11-15T11:07:28;28.80;;;16.13;;
31043;SDS011;17710;52.520;13.352;2022-11-15T11:09:57;27.45;;;15.52;;
31043;SDS011;17710;52.520;13.352;2022-11-15T11:12:28;26.90;;;15.15;;
31043;SDS011;17710;52.520;13.352;2022-11-15T11:14:57;27.00;;;15.70;;
31043;SDS011;17710;52.520;13.352;2022-11-15T11:17:28;25.45;;;15.05;;
31043;SDS011;17710;52.520;13.352;2022-11-15T11:20:03;24.45;;;15.32;;
31043;SDS011;17710;52.520;13.352;2022-11-15T11:22:39;26.52;;;15.10;;
31043;SDS011;17710;52.520;13.352;2022-11-15T11:25:22;24.77;;;15.27;;
31043;SDS011;17710;52.520;13.352;2022-11-15T11:28:04;25.58;;;15.68;;
31043;SDS011;17710;52.520;13.352;2022-11-15T11:30:43;24.85;;;15.38;;
31043;SDS011;17710;52.520;13.352;2022-11-15T11:33:18;26.88;;;15.52;;
31043;SDS011;17710;52.520;13.352;2022-11-15T11:35:50;27.27;;;16.05;;
31043;SDS011;17710;52.520;13.352;2022-11-15T11:38:32;24.48;;;16.05;;
31043;SDS011;17710;52.520;13.352;2022-11-15T11:41:07;25.20;;;16.73;;
31043;SDS011;17710;52.520;13.352;2022-11-15T11:43:42;29.63;;;16.77;;
31043;SDS011;17710;52.520;13.352;2022-11-15T11:46:30;24.20;;;14.82;;
31043;SDS011;17710;52.520;13.352;2022-11-15T11:49:10;24.20;;;14.90;;
31043;SDS011;17710;52.520;13.352;2022-11-15T11:51:41;21.27;;;13.43;;
31043;SDS011;17710;52.520;13.352;2022-11-15T11:54:12;21.70;;;14.98;;
31043;SDS011;17710;52.520;13.352;2022-11-15T11:56:43;25.88;;;15.43;;
31043;SDS011;17710;52.520;13.352;2022-11-15T11:59:12;24.98;;;15.68;;
31043;SDS011;17710;52.520;13.352;2022-11-15T12:01:45;26.35;;;14.95;;
31043;SDS011;17710;52.520;13.352;2022-11-15T12:04:16;23.27;;;14.70;;
31043;SDS011;17710;52.520;13.352;2022-11-15T12:06:48;28.63;;;14.90;;
31043;SDS011;17710;52.520;13.352;2022-11-15T12:09:17;23.52;;;15.30;;
31043;SDS011;17710;52.520;13.352;2022-11-15T12:11:51;25.50;;;15.07;;
31043;SDS011;17710;52.520;13.352;2022-11-15T12:14:24;23.65;;;14.90;;
31043;SDS011;17710;52.520;13.352;2022-11-15T12:16:57;26.43;;;14.80;;
31043;SDS011;17710;52.520;13.352;2022-11-15T12:19:25;25.58;;;15.20;;
31043;SDS011;17710;52.520;13.352;2022-11-15T12:21:54;29.63;;;16.15;;
31043;SDS011;17710;52.520;13.352;2022-11-15T12:24:26;23.30;;;14.60;;
31043;SDS011;17710;52.520;13.352;2022-11-15T12:26:57;29.85;;;16.20;;
31043;SDS011;17710;52.520;13.352;2022-11-15T12:29:31;24.75;;;15.20;;
31043;SDS011;17710;52.520;13.352;2022-11-15T12:32:01;28.75;;;15.57;;
31043;SDS011;17710;52.520;13.352;2022-11-15T12:34:34;31.30;;;16.10;;
31043;SDS011;17710;52.520;13.352;2022-11-15T12:40:18;23.70;;;15.73;;
31043;SDS011;17710;52.520;13.352;2022-11-15T12:43:02;22.83;;;15.30;;
31043;SDS011;17710;52.520;13.352;2022-11-15T12:45:44;25.52;;;15.90;;
31043;SDS011;17710;52.520;13.352;2022-11-15T12:57:22;21.40;;;13.13;;
31043;SDS011;17710;52.520;13.352;2022-11-15T12:59:56;21.30;;;13.55;;
31043;SDS011;17710;52.520;13.352;2022-11-15T13:02:27;22.70;;;13.65;;
31043;SDS011;17710;52.520;13.352;2022-11-15T13:08:01;19.95;;;13.40;;
31043;SDS011;17710;52.520;13.352;2022-11-15T13:10:30;23.05;;;13.95;;
31043;SDS011;17710;52.520;13.352;2022-11-15T13:12:59;26.17;;;14.40;;
31043;SDS011;17710;52.520;13.352;2022-11-15T13:15:34;29.70;;;16.83;;
31043;SDS011;17710;52.520;13.352;2022-11-15T13:21:04;24.77;;;14.43;;
31043;SDS011;17710;52.520;13.352;2022-11-15T13:24:01;25.73;;;16.42;;
31043;SDS011;17710;52.520;13.352;2022-11-15T13:26:30;24.25;;;16.52;;
31043;SDS011;17710;52.520;13.352;2022-11-15T13:28:57;24.58;;;15.13;;
31043;SDS011;17710;52.520;13.352;2022-11-15T13:31:25;27.25;;;15.85;;
31043;SDS011;17710;52.520;13.352;2022-11-15T13:33:55;29.50;;;15.48;;
31043;SDS011;17710;52.520;13.352;2022-11-15T13:36:24;29.58;;;16.02;;
31043;SDS011;17710;52.520;13.352;2022-11-15T13:38:54;23.45;;;14.63;;
31043;SDS011;17710;52.520;13.352;2022-11-15T13:41:23;22.55;;;15.27;;
31043;SDS011;17710;52.520;13.352;2022-11-15T13:43:52;29.88;;;15.27;;
31043;SDS011;17710;52.520;13.352;2022-11-15T13:46:20;23.80;;;14.93;;
31043;SDS011;17710;52.520;13.352;2022-11-15T13:48:51;25.33;;;16.00;;
31043;SDS011;17710;52.520;13.352;2022-11-15T13:51:20;28.10;;;15.35;;
31043;SDS011;17710;52.520;13.352;2022-11-15T13:53:50;30.60;;;16.55;;
31043;SDS011;17710;52.520;13.352;2022-11-15T13:56:21;31.17;;;16.00;;
31043;SDS011;17710;52.520;13.352;2022-11-15T13:58:48;29.30;;;15.05;;
31043;SDS011;17710;52.520;13.352;2022-11-15T14:01:17;30.85;;;15.52;;
31043;SDS011;17710;52.520;13.352;2022-11-15T14:03:57;22.40;;;15.07;;
31043;SDS011;17710;52.520;13.352;2022-11-15T14:06:50;29.73;;;15.57;;
31043;SDS011;17710;52.520;13.352;2022-11-15T14:09:32;27.38;;;15.95;;
31043;SDS011;17710;52.520;13.352;2022-11-15T14:12:01;26.17;;;14.88;;
31043;SDS011;17710;52.520;13.352;2022-11-15T14:14:47;26.85;;;15.15;;
31043;SDS011;17710;52.520;13.352;2022-11-15T14:17:19;25.15;;;15.27;;
31043;SDS011;17710;52.520;13.352;2022-11-15T14:19:48;26.92;;;14.60;;
31043;SDS011;17710;52.520;13.352;2022-11-15T14:22:20;28.42;;;15.30;;
31043;SDS011;17710;52.520;13.352;2022-11-15T14:27:31;29.13;;;14.60;;
31043;SDS011;17710;52.520;13.352;2022-11-15T14:29:58;26.17;;;14.93;;
31043;SDS011;17710;52.520;13.352;2022-11-15T14:32:27;27.48;;;15.18;;
31043;SDS011;17710;52.520;13.352;2022-11-15T14:34:55;24.55;;;13.73;;
31043;SDS011;17710;52.520;13.352;2022-11-15T14:37:24;28.27;;;15.00;;
31043;SDS011;17710;52.520;13.352;2022-11-15T14:39:52;31.42;;;14.50;;
31043;SDS011;17710;52.520;13.352;2022-11-15T14:42:19;26.20;;;13.70;;
31043;SDS011;17710;52.520;13.352;2022-11-15T14:44:47;30.67;;;14.73;;
31043;SDS011;17710;52.520;13.352;2022-11-15T14:47:14;24.58;;;14.40;;
31043;SDS011;17710;52.520;13.352;2022-11-15T14:49:41;27.85;;;14.52;;
31043;SDS011;17710;52.520;13.352;2022-11-15T14:52:22;28.73;;;14.63;;
31043;SDS011;17710;52.520;13.352;2022-11-15T14:54:50;22.40;;;14.45;;